sensor_id;sensor_type;location;lat;lon;timestamp;temperature;humidity
13561;DHT22;6852;51.686;5.314;2022-10-19T00:01:03;11.40;99.90
13561;DHT22;6852;51.686;5.314;2022-10-19T00:03:31;11.40;99.90
13561;DHT22;6852;51.686;5.314;2022-10-19T00:05:58;11.40;99.90
13561;DHT22;6852;51.686;5.314;2022-10-19T00:08:26;11.40;99.90
13561;DHT22;6852;51.686;5.314;2022-10-19T00:10:52;11.30;99.90
13561;DHT22;6852;51.686;5.314;2022-10-19T00:13:19;11.30;99.90
13561;DHT22;6852;51.686;5.314;2022-10-19T00:15:46;11.20;99.90
13561;DHT22;6852;51.686;5.314;2022-10-19T00:18:13;11.20;99.90
13561;DHT22;6852;51.686;5.314;2022-10-19T00:20:39;11.20;99.90
13561;DHT22;6852;51.686;5.314;2022-10-19T00:23:06;11.10;99.90
13561;DHT22;6852;51.686;5.314;2022-10-19T00:25:33;11.20;99.90
13561;DHT22;6852;51.686;5.314;2022-10-19T00:28:00;11.30;99.90
13561;DHT22;6852;51.686;5.314;2022-10-19T00:30:27;11.30;99.90
13561;DHT22;6852;51.686;5.314;2022-10-19T00:32:53;11.30;99.90
13561;DHT22;6852;51.686;5.314;2022-10-19T00:35:20;11.20;99.90
13561;DHT22;6852;51.686;5.314;2022-10-19T00:37:47;11.20;99.90
13561;DHT22;6852;51.686;5.314;2022-10-19T00:40:14;11.10;99.90
13561;DHT22;6852;51.686;5.314;2022-10-19T00:42:40;11.10;99.90
13561;DHT22;6852;51.686;5.314;2022-10-19T00:45:15;11.00;99.90
13561;DHT22;6852;51.686;5.314;2022-10-19T00:47:43;11.00;99.90
13561;DHT22;6852;51.686;5.314;2022-10-19T00:50:12;10.90;99.90
13561;DHT22;6852;51.686;5.314;2022-10-19T00:52:40;11.00;99.90
13561;DHT22;6852;51.686;5.314;2022-10-19T00:55:08;11.00;99.90
13561;DHT22;6852;51.686;5.314;2022-10-19T00:57:35;11.00;99.90
13561;DHT22;6852;51.686;5.314;2022-10-19T01:00:05;10.90;99.90
13561;DHT22;6852;51.686;5.314;2022-10-19T01:02:34;10.90;99.90
13561;DHT22;6852;51.686;5.314;2022-10-19T01:05:03;10.90;99.90
13561;DHT22;6852;51.686;5.314;2022-10-19T01:07:30;10.90;99.90
13561;DHT22;6852;51.686;5.314;2022-10-19T01:09:58;10.90;99.90
13561;DHT22;6852;51.686;5.314;2022-10-19T01:15:51;10.90;99.90
13561;DHT22;6852;51.686;5.314;2022-10-19T01:18:45;10.90;99.90
13561;DHT22;6852;51.686;5.314;2022-10-19T01:21:28;10.90;99.90
13561;DHT22;6852;51.686;5.314;2022-10-19T01:24:25;10.80;99.90
13561;DHT22;6852;51.686;5.314;2022-10-19T01:30:15;10.80;99.90
13561;DHT22;6852;51.686;5.314;2022-10-19T01:32:58;10.80;99.90
13561;DHT22;6852;51.686;5.314;2022-10-19T01:35:30;10.80;99.90
13561;DHT22;6852;51.686;5.314;2022-10-19T01:38:01;10.70;99.90
13561;DHT22;6852;51.686;5.314;2022-10-19T01:40:40;10.60;99.90
13561;DHT22;6852;51.686;5.314;2022-10-19T01:43:10;10.60;99.90
13561;DHT22;6852;51.686;5.314;2022-10-19T01:48:44;10.60;99.90
13561;DHT22;6852;51.686;5.314;2022-10-19T01:51:16;10.60;99.90
13561;DHT22;6852;51.686;5.314;2022-10-19T01:53:48;10.60;99.90
13561;DHT22;6852;51.686;5.314;2022-10-19T01:56:18;10.60;99.90
13561;DHT22;6852;51.686;5.314;2022-10-19T01:58:46;10.60;99.90
13561;DHT22;6852;51.686;5.314;2022-10-19T02:01:17;10.60;99.90
13561;DHT22;6852;51.686;5.314;2022-10-19T02:03:45;10.60;99.90
13561;DHT22;6852;51.686;5.314;2022-10-19T02:06:12;10.60;99.90
13561;DHT22;6852;51.686;5.314;2022-10-19T02:08:44;10.60;99.90
13561;DHT22;6852;51.686;5.314;2022-10-19T02:11:11;10.50;99.90
13561;DHT22;6852;51.686;5.314;2022-10-19T02:13:38;10.50;99.90
13561;DHT22;6852;51.686;5.314;2022-10-19T02:16:11;10.60;99.90
13561;DHT22;6852;51.686;5.314;2022-10-19T02:18:43;10.50;99.90
13561;DHT22;6852;51.686;5.314;2022-10-19T02:21:11;10.40;99.90
13561;DHT22;6852;51.686;5.314;2022-10-19T02:23:38;10.40;99.90
13561;DHT22;6852;51.686;5.314;2022-10-19T02:26:05;10.40;99.90
13561;DHT22;6852;51.686;5.314;2022-10-19T02:28:32;10.40;99.90
13561;DHT22;6852;51.686;5.314;2022-10-19T02:31:00;10.40;99.90
13561;DHT22;6852;51.686;5.314;2022-10-19T02:33:27;10.30;99.90
13561;DHT22;6852;51.686;5.314;2022-10-19T02:35:55;10.30;99.90
13561;DHT22;6852;51.686;5.314;2022-10-19T02:38:23;10.30;99.90
13561;DHT22;6852;51.686;5.314;2022-10-19T02:40:58;10.30;99.90
13561;DHT22;6852;51.686;5.314;2022-10-19T02:43:26;10.20;99.90
13561;DHT22;6852;51.686;5.314;2022-10-19T02:46:10;10.20;99.90
13561;DHT22;6852;51.686;5.314;2022-10-19T02:48:40;10.30;99.90
13561;DHT22;6852;51.686;5.314;2022-10-19T02:51:35;10.30;99.90
13561;DHT22;6852;51.686;5.314;2022-10-19T02:54:05;10.20;99.90
13561;DHT22;6852;51.686;5.314;2022-10-19T02:56:33;10.10;99.90
13561;DHT22;6852;51.686;5.314;2022-10-19T02:59:01;10.20;99.90
13561;DHT22;6852;51.686;5.314;2022-10-19T03:01:28;10.30;99.90
13561;DHT22;6852;51.686;5.314;2022-10-19T03:03:54;10.10;99.90
13561;DHT22;6852;51.686;5.314;2022-10-19T03:06:21;10.20;99.90
13561;DHT22;6852;51.686;5.314;2022-10-19T03:08:48;10.10;99.90
13561;DHT22;6852;51.686;5.314;2022-10-19T03:11:15;10.20;99.90
13561;DHT22;6852;51.686;5.314;2022-10-19T03:13:41;10.10;99.90
13561;DHT22;6852;51.686;5.314;2022-10-19T03:16:10;10.10;99.90
13561;DHT22;6852;51.686;5.314;2022-10-19T03:18:38;10.10;99.90
13561;DHT22;6852;51.686;5.314;2022-10-19T03:21:07;10.10;99.90
13561;DHT22;6852;51.686;5.314;2022-10-19T03:23:34;10.00;99.90
13561;DHT22;6852;51.686;5.314;2022-10-19T03:26:01;10.00;99.90
13561;DHT22;6852;51.686;5.314;2022-10-19T03:28:28;10.00;99.90
13561;DHT22;6852;51.686;5.314;2022-10-19T03:30:55;10.10;99.90
13561;DHT22;6852;51.686;5.314;2022-10-19T03:33:22;10.10;99.90
13561;DHT22;6852;51.686;5.314;2022-10-19T03:36:21;10.00;99.90
13561;DHT22;6852;51.686;5.314;2022-10-19T03:38:53;10.00;99.90
13561;DHT22;6852;51.686;5.314;2022-10-19T03:41:22;10.00;99.90
13561;DHT22;6852;51.686;5.314;2022-10-19T03:43:49;10.00;99.90
13561;DHT22;6852;51.686;5.314;2022-10-19T03:46:16;10.00;99.90
13561;DHT22;6852;51.686;5.314;2022-10-19T03:48:43;10.00;99.90
13561;DHT22;6852;51.686;5.314;2022-10-19T03:51:16;9.90;99.90
13561;DHT22;6852;51.686;5.314;2022-10-19T03:53:44;9.90;99.90
13561;DHT22;6852;51.686;5.314;2022-10-19T03:56:16;10.00;99.90
13561;DHT22;6852;51.686;5.314;2022-10-19T03:58:44;9.90;99.90
13561;DHT22;6852;51.686;5.314;2022-10-19T04:01:18;9.90;99.90
13561;DHT22;6852;51.686;5.314;2022-10-19T04:03:45;10.00;99.90
13561;DHT22;6852;51.686;5.314;2022-10-19T04:06:14;9.90;99.90
13561;DHT22;6852;51.686;5.314;2022-10-19T04:08:48;9.90;99.90
13561;DHT22;6852;51.686;5.314;2022-10-19T04:11:17;9.90;99.90
13561;DHT22;6852;51.686;5.314;2022-10-19T04:13:47;9.90;99.90
13561;DHT22;6852;51.686;5.314;2022-10-19T04:16:15;10.00;99.90
13561;DHT22;6852;51.686;5.314;2022-10-19T04:18:42;9.90;99.90
13561;DHT22;6852;51.686;5.314;2022-10-19T04:21:22;9.80;99.90
13561;DHT22;6852;51.686;5.314;2022-10-19T04:23:51;9.80;99.90
13561;DHT22;6852;51.686;5.314;2022-10-19T04:26:19;9.80;99.90
13561;DHT22;6852;51.686;5.314;2022-10-19T04:28:46;9.70;99.90
13561;DHT22;6852;51.686;5.314;2022-10-19T04:31:13;9.80;99.90
13561;DHT22;6852;51.686;5.314;2022-10-19T04:33:40;9.80;99.90
13561;DHT22;6852;51.686;5.314;2022-10-19T04:36:10;9.70;99.90
13561;DHT22;6852;51.686;5.314;2022-10-19T04:38:37;9.70;99.90
13561;DHT22;6852;51.686;5.314;2022-10-19T04:41:07;9.80;99.90
13561;DHT22;6852;51.686;5.314;2022-10-19T04:43:34;9.70;99.90
13561;DHT22;6852;51.686;5.314;2022-10-19T04:46:10;9.70;99.90
13561;DHT22;6852;51.686;5.314;2022-10-19T04:48:38;9.70;99.90
13561;DHT22;6852;51.686;5.314;2022-10-19T04:51:06;9.70;99.90
13561;DHT22;6852;51.686;5.314;2022-10-19T04:53:36;9.60;99.90
13561;DHT22;6852;51.686;5.314;2022-10-19T04:56:04;9.60;99.90
13561;DHT22;6852;51.686;5.314;2022-10-19T04:58:32;9.60;99.90
13561;DHT22;6852;51.686;5.314;2022-10-19T05:00:58;9.60;99.90
13561;DHT22;6852;51.686;5.314;2022-10-19T05:03:25;9.60;99.90
13561;DHT22;6852;51.686;5.314;2022-10-19T05:05:52;9.60;99.90
13561;DHT22;6852;51.686;5.314;2022-10-19T05:08:19;9.60;99.90
13561;DHT22;6852;51.686;5.314;2022-10-19T05:10:45;9.60;99.90
13561;DHT22;6852;51.686;5.314;2022-10-19T05:13:13;9.60;99.90
13561;DHT22;6852;51.686;5.314;2022-10-19T05:15:40;9.60;99.90
13561;DHT22;6852;51.686;5.314;2022-10-19T05:18:07;9.50;99.90
13561;DHT22;6852;51.686;5.314;2022-10-19T05:20:33;9.60;99.90
13561;DHT22;6852;51.686;5.314;2022-10-19T05:23:00;9.60;99.90
13561;DHT22;6852;51.686;5.314;2022-10-19T05:25:33;9.60;99.90
13561;DHT22;6852;51.686;5.314;2022-10-19T05:27:59;9.60;99.90
13561;DHT22;6852;51.686;5.314;2022-10-19T05:30:26;9.60;99.90
13561;DHT22;6852;51.686;5.314;2022-10-19T05:32:53;9.50;99.90
13561;DHT22;6852;51.686;5.314;2022-10-19T05:35:19;9.50;99.90
13561;DHT22;6852;51.686;5.314;2022-10-19T05:37:52;9.50;99.90
13561;DHT22;6852;51.686;5.314;2022-10-19T05:40:19;9.50;99.90
13561;DHT22;6852;51.686;5.314;2022-10-19T05:42:46;9.50;99.90
13561;DHT22;6852;51.686;5.314;2022-10-19T05:45:13;9.60;99.90
13561;DHT22;6852;51.686;5.314;2022-10-19T05:47:40;9.50;99.90
13561;DHT22;6852;51.686;5.314;2022-10-19T05:50:07;9.50;99.90
13561;DHT22;6852;51.686;5.314;2022-10-19T05:52:33;9.60;99.90
13561;DHT22;6852;51.686;5.314;2022-10-19T05:55:00;9.50;99.90
13561;DHT22;6852;51.686;5.314;2022-10-19T05:57:27;9.60;99.90
13561;DHT22;6852;51.686;5.314;2022-10-19T05:59:54;9.60;99.90
13561;DHT22;6852;51.686;5.314;2022-10-19T06:02:23;9.60;99.90
13561;DHT22;6852;51.686;5.314;2022-10-19T06:04:50;9.60;99.90
13561;DHT22;6852;51.686;5.314;2022-10-19T06:07:17;9.60;99.90
13561;DHT22;6852;51.686;5.314;2022-10-19T06:09:44;9.50;99.90
13561;DHT22;6852;51.686;5.314;2022-10-19T06:12:11;9.50;99.90
13561;DHT22;6852;51.686;5.314;2022-10-19T06:14:41;9.50;99.90
13561;DHT22;6852;51.686;5.314;2022-10-19T06:17:08;9.50;99.90
13561;DHT22;6852;51.686;5.314;2022-10-19T06:19:35;9.60;99.90
13561;DHT22;6852;51.686;5.314;2022-10-19T06:22:02;9.50;99.90
13561;DHT22;6852;51.686;5.314;2022-10-19T06:24:29;9.50;99.90
13561;DHT22;6852;51.686;5.314;2022-10-19T06:26:56;9.40;99.90
13561;DHT22;6852;51.686;5.314;2022-10-19T06:29:22;9.50;99.90
13561;DHT22;6852;51.686;5.314;2022-10-19T06:31:49;9.50;99.90
13561;DHT22;6852;51.686;5.314;2022-10-19T06:34:17;9.40;99.90
13561;DHT22;6852;51.686;5.314;2022-10-19T06:36:44;9.40;99.90
13561;DHT22;6852;51.686;5.314;2022-10-19T06:39:11;9.40;99.90
13561;DHT22;6852;51.686;5.314;2022-10-19T06:41:37;9.50;99.90
13561;DHT22;6852;51.686;5.314;2022-10-19T06:44:04;9.50;99.90
13561;DHT22;6852;51.686;5.314;2022-10-19T06:46:31;9.50;99.90
13561;DHT22;6852;51.686;5.314;2022-10-19T06:49:00;9.50;99.90
13561;DHT22;6852;51.686;5.314;2022-10-19T06:51:29;9.60;99.90
13561;DHT22;6852;51.686;5.314;2022-10-19T06:53:56;9.60;99.90
13561;DHT22;6852;51.686;5.314;2022-10-19T06:56:24;9.60;99.90
13561;DHT22;6852;51.686;5.314;2022-10-19T06:58:51;9.70;99.90
13561;DHT22;6852;51.686;5.314;2022-10-19T07:01:18;9.70;99.90
13561;DHT22;6852;51.686;5.314;2022-10-19T07:03:45;9.70;99.90
13561;DHT22;6852;51.686;5.314;2022-10-19T07:06:13;9.80;99.90
13561;DHT22;6852;51.686;5.314;2022-10-19T07:08:41;9.90;99.90
13561;DHT22;6852;51.686;5.314;2022-10-19T07:11:16;10.10;99.90
13561;DHT22;6852;51.686;5.314;2022-10-19T07:13:43;10.20;99.90
13561;DHT22;6852;51.686;5.314;2022-10-19T07:16:13;10.40;99.90
13561;DHT22;6852;51.686;5.314;2022-10-19T07:18:46;10.50;99.90
13561;DHT22;6852;51.686;5.314;2022-10-19T07:21:14;10.70;99.90
13561;DHT22;6852;51.686;5.314;2022-10-19T07:23:43;10.70;99.90
13561;DHT22;6852;51.686;5.314;2022-10-19T07:26:13;10.90;99.90
13561;DHT22;6852;51.686;5.314;2022-10-19T07:28:41;10.80;99.90
13561;DHT22;6852;51.686;5.314;2022-10-19T07:31:11;10.80;99.90
13561;DHT22;6852;51.686;5.314;2022-10-19T07:33:38;10.90;99.90
13561;DHT22;6852;51.686;5.314;2022-10-19T07:36:07;11.00;99.90
13561;DHT22;6852;51.686;5.314;2022-10-19T07:38:36;11.20;99.90
13561;DHT22;6852;51.686;5.314;2022-10-19T07:41:08;11.40;99.90
13561;DHT22;6852;51.686;5.314;2022-10-19T07:43:35;11.50;99.90
13561;DHT22;6852;51.686;5.314;2022-10-19T07:46:16;11.60;99.90
13561;DHT22;6852;51.686;5.314;2022-10-19T07:48:43;11.60;99.90
13561;DHT22;6852;51.686;5.314;2022-10-19T07:51:12;11.60;99.90
13561;DHT22;6852;51.686;5.314;2022-10-19T07:53:39;11.50;99.90
13561;DHT22;6852;51.686;5.314;2022-10-19T07:56:11;11.70;99.90
13561;DHT22;6852;51.686;5.314;2022-10-19T07:58:38;11.80;99.90
13561;DHT22;6852;51.686;5.314;2022-10-19T08:03:34;12.40;99.90
13561;DHT22;6852;51.686;5.314;2022-10-19T08:06:22;12.60;99.90
13561;DHT22;6852;51.686;5.314;2022-10-19T08:08:50;12.90;99.90
13561;DHT22;6852;51.686;5.314;2022-10-19T08:11:26;13.10;99.90
13561;DHT22;6852;51.686;5.314;2022-10-19T08:13:54;13.60;99.90
13561;DHT22;6852;51.686;5.314;2022-10-19T08:16:38;13.70;99.90
13561;DHT22;6852;51.686;5.314;2022-10-19T08:19:12;13.90;99.90
13561;DHT22;6852;51.686;5.314;2022-10-19T08:21:42;14.10;99.90
13561;DHT22;6852;51.686;5.314;2022-10-19T08:24:10;14.30;99.90
13561;DHT22;6852;51.686;5.314;2022-10-19T08:26:38;14.70;99.90
13561;DHT22;6852;51.686;5.314;2022-10-19T08:29:17;14.60;99.90
13561;DHT22;6852;51.686;5.314;2022-10-19T08:31:46;15.00;99.90
13561;DHT22;6852;51.686;5.314;2022-10-19T08:34:14;15.00;99.90
13561;DHT22;6852;51.686;5.314;2022-10-19T08:36:41;15.20;99.90
13561;DHT22;6852;51.686;5.314;2022-10-19T08:39:13;14.90;99.90
13561;DHT22;6852;51.686;5.314;2022-10-19T08:47:10;14.80;99.90
13561;DHT22;6852;51.686;5.314;2022-10-19T08:49:44;15.20;99.90
13561;DHT22;6852;51.686;5.314;2022-10-19T08:52:19;15.60;99.90
13561;DHT22;6852;51.686;5.314;2022-10-19T08:54:55;14.90;99.90
13561;DHT22;6852;51.686;5.314;2022-10-19T08:57:42;15.50;99.90
13561;DHT22;6852;51.686;5.314;2022-10-19T09:00:18;15.80;99.90
13561;DHT22;6852;51.686;5.314;2022-10-19T09:05:45;15.60;99.90
13561;DHT22;6852;51.686;5.314;2022-10-19T09:08:14;15.30;99.90
13561;DHT22;6852;51.686;5.314;2022-10-19T09:10:45;15.60;99.90
13561;DHT22;6852;51.686;5.314;2022-10-19T09:13:33;15.80;99.90
13561;DHT22;6852;51.686;5.314;2022-10-19T09:16:21;15.80;99.90
13561;DHT22;6852;51.686;5.314;2022-10-19T09:18:49;15.90;99.90
13561;DHT22;6852;51.686;5.314;2022-10-19T09:21:23;15.80;99.90
13561;DHT22;6852;51.686;5.314;2022-10-19T09:26:59;15.70;99.90
13561;DHT22;6852;51.686;5.314;2022-10-19T09:29:44;15.90;99.90
13561;DHT22;6852;51.686;5.314;2022-10-19T09:32:22;15.80;99.90
13561;DHT22;6852;51.686;5.314;2022-10-19T09:34:53;15.60;99.90
13561;DHT22;6852;51.686;5.314;2022-10-19T09:37:21;15.40;99.90
13561;DHT22;6852;51.686;5.314;2022-10-19T09:39:52;15.30;99.90
13561;DHT22;6852;51.686;5.314;2022-10-19T09:42:31;15.20;99.90
13561;DHT22;6852;51.686;5.314;2022-10-19T09:45:10;15.30;99.90
13561;DHT22;6852;51.686;5.314;2022-10-19T09:47:39;15.30;99.90
13561;DHT22;6852;51.686;5.314;2022-10-19T09:50:22;15.40;99.90
13561;DHT22;6852;51.686;5.314;2022-10-19T09:52:50;15.20;99.90
13561;DHT22;6852;51.686;5.314;2022-10-19T09:55:40;15.20;99.90
13561;DHT22;6852;51.686;5.314;2022-10-19T10:00:41;14.90;99.90
13561;DHT22;6852;51.686;5.314;2022-10-19T10:05:57;14.90;99.90
13561;DHT22;6852;51.686;5.314;2022-10-19T10:08:31;15.20;99.90
13561;DHT22;6852;51.686;5.314;2022-10-19T10:11:06;15.40;99.90
13561;DHT22;6852;51.686;5.314;2022-10-19T10:13:39;15.30;99.90
13561;DHT22;6852;51.686;5.314;2022-10-19T10:16:10;15.40;99.90
13561;DHT22;6852;51.686;5.314;2022-10-19T10:18:49;15.40;99.90
13561;DHT22;6852;51.686;5.314;2022-10-19T10:24:19;15.60;99.90
13561;DHT22;6852;51.686;5.314;2022-10-19T10:26:51;15.60;99.90
13561;DHT22;6852;51.686;5.314;2022-10-19T10:29:22;15.20;99.90
13561;DHT22;6852;51.686;5.314;2022-10-19T10:31:52;15.40;99.90
13561;DHT22;6852;51.686;5.314;2022-10-19T10:34:35;15.30;99.90
13561;DHT22;6852;51.686;5.314;2022-10-19T10:37:27;15.00;99.90
13561;DHT22;6852;51.686;5.314;2022-10-19T10:39:56;15.20;99.90
13561;DHT22;6852;51.686;5.314;2022-10-19T10:42:34;15.30;99.90
13561;DHT22;6852;51.686;5.314;2022-10-19T10:45:02;15.30;99.90
13561;DHT22;6852;51.686;5.314;2022-10-19T10:47:30;15.30;99.90
13561;DHT22;6852;51.686;5.314;2022-10-19T10:50:00;15.20;99.90
13561;DHT22;6852;51.686;5.314;2022-10-19T10:52:29;15.20;99.90
13561;DHT22;6852;51.686;5.314;2022-10-19T10:55:01;15.40;99.90
13561;DHT22;6852;51.686;5.314;2022-10-19T10:57:34;15.30;99.90
13561;DHT22;6852;51.686;5.314;2022-10-19T11:00:07;15.60;99.90
13561;DHT22;6852;51.686;5.314;2022-10-19T11:03:05;15.30;99.90
13561;DHT22;6852;51.686;5.314;2022-10-19T11:05:37;15.30;99.90
13561;DHT22;6852;51.686;5.314;2022-10-19T11:13:58;15.70;99.90
13561;DHT22;6852;51.686;5.314;2022-10-19T11:16:34;15.60;99.90
13561;DHT22;6852;51.686;5.314;2022-10-19T11:19:14;15.40;99.90
13561;DHT22;6852;51.686;5.314;2022-10-19T11:31:58;15.80;99.90
13561;DHT22;6852;51.686;5.314;2022-10-19T11:34:47;15.90;99.90
13561;DHT22;6852;51.686;5.314;2022-10-19T11:37:32;16.10;99.90
13561;DHT22;6852;51.686;5.314;2022-10-19T11:43:09;16.30;99.90
13561;DHT22;6852;51.686;5.314;2022-10-19T11:46:21;16.50;99.90
13561;DHT22;6852;51.686;5.314;2022-10-19T11:51:21;17.50;99.90
13561;DHT22;6852;51.686;5.314;2022-10-19T12:04:59;17.80;99.90
13561;DHT22;6852;51.686;5.314;2022-10-19T12:07:57;18.40;99.90
13561;DHT22;6852;51.686;5.314;2022-10-19T12:13:50;18.60;99.90
13561;DHT22;6852;51.686;5.314;2022-10-19T12:16:19;18.70;99.90
13561;DHT22;6852;51.686;5.314;2022-10-19T12:18:58;18.80;99.90
13561;DHT22;6852;51.686;5.314;2022-10-19T12:21:33;18.60;99.90
13561;DHT22;6852;51.686;5.314;2022-10-19T12:24:04;18.60;99.90
13561;DHT22;6852;51.686;5.314;2022-10-19T12:26:34;19.30;99.90
13561;DHT22;6852;51.686;5.314;2022-10-19T12:29:10;19.50;99.90
13561;DHT22;6852;51.686;5.314;2022-10-19T12:31:40;19.00;99.90
13561;DHT22;6852;51.686;5.314;2022-10-19T12:40:04;18.70;99.90
13561;DHT22;6852;51.686;5.314;2022-10-19T12:43:19;18.70;99.90
13561;DHT22;6852;51.686;5.314;2022-10-19T12:48:39;18.90;99.90
13561;DHT22;6852;51.686;5.314;2022-10-19T12:51:10;19.00;99.90
13561;DHT22;6852;51.686;5.314;2022-10-19T12:53:49;19.10;99.90
13561;DHT22;6852;51.686;5.314;2022-10-19T12:56:25;19.20;99.90
13561;DHT22;6852;51.686;5.314;2022-10-19T12:58:57;18.90;99.90
13561;DHT22;6852;51.686;5.314;2022-10-19T13:04:11;18.40;99.90
13561;DHT22;6852;51.686;5.314;2022-10-19T13:22:44;17.50;99.90
13561;DHT22;6852;51.686;5.314;2022-10-19T13:25:20;17.60;99.90
13561;DHT22;6852;51.686;5.314;2022-10-19T13:27:50;17.70;99.90
13561;DHT22;6852;51.686;5.314;2022-10-19T13:38:38;17.30;99.90
13561;DHT22;6852;51.686;5.314;2022-10-19T13:41:25;17.50;99.90
13561;DHT22;6852;51.686;5.314;2022-10-19T13:46:37;17.60;99.90
13561;DHT22;6852;51.686;5.314;2022-10-19T13:58:16;18.10;99.90
13561;DHT22;6852;51.686;5.314;2022-10-19T14:06:35;18.10;99.90
13561;DHT22;6852;51.686;5.314;2022-10-19T14:11:53;18.60;99.90
13561;DHT22;6852;51.686;5.314;2022-10-19T14:14:29;18.30;99.90
13561;DHT22;6852;51.686;5.314;2022-10-19T14:16:59;18.50;99.90
13561;DHT22;6852;51.686;5.314;2022-10-19T14:19:41;18.50;99.90
13561;DHT22;6852;51.686;5.314;2022-10-19T14:22:30;18.60;99.90
13561;DHT22;6852;51.686;5.314;2022-10-19T14:25:23;18.20;99.90
13561;DHT22;6852;51.686;5.314;2022-10-19T14:28:01;17.60;99.90
13561;DHT22;6852;51.686;5.314;2022-10-19T14:30:32;17.80;99.90
13561;DHT22;6852;51.686;5.314;2022-10-19T14:33:05;17.70;99.90
13561;DHT22;6852;51.686;5.314;2022-10-19T14:35:36;17.90;99.90
13561;DHT22;6852;51.686;5.314;2022-10-19T14:38:05;18.10;99.90
13561;DHT22;6852;51.686;5.314;2022-10-19T14:40:39;18.10;99.90
13561;DHT22;6852;51.686;5.314;2022-10-19T14:46:12;17.80;99.90
13561;DHT22;6852;51.686;5.314;2022-10-19T14:48:40;17.80;99.90
13561;DHT22;6852;51.686;5.314;2022-10-19T14:53:56;17.70;99.90
13561;DHT22;6852;51.686;5.314;2022-10-19T14:56:59;17.60;99.90
13561;DHT22;6852;51.686;5.314;2022-10-19T14:59:36;17.30;99.90
13561;DHT22;6852;51.686;5.314;2022-10-19T15:02:37;17.20;99.90
13561;DHT22;6852;51.686;5.314;2022-10-19T15:05:11;17.20;99.90
13561;DHT22;6852;51.686;5.314;2022-10-19T15:07:42;17.20;99.90
13561;DHT22;6852;51.686;5.314;2022-10-19T15:10:43;16.90;99.90
13561;DHT22;6852;51.686;5.314;2022-10-19T15:15:51;16.60;99.90
13561;DHT22;6852;51.686;5.314;2022-10-19T15:18:21;16.70;99.90
13561;DHT22;6852;51.686;5.314;2022-10-19T15:21:16;16.70;99.90
13561;DHT22;6852;51.686;5.314;2022-10-19T15:23:47;16.60;99.90
13561;DHT22;6852;51.686;5.314;2022-10-19T15:28:44;16.30;99.90
13561;DHT22;6852;51.686;5.314;2022-10-19T15:31:17;16.30;99.90
13561;DHT22;6852;51.686;5.314;2022-10-19T15:33:50;16.20;99.90
13561;DHT22;6852;51.686;5.314;2022-10-19T15:36:19;16.10;99.90
13561;DHT22;6852;51.686;5.314;2022-10-19T15:38:48;16.00;99.90
13561;DHT22;6852;51.686;5.314;2022-10-19T15:41:44;16.00;99.90
13561;DHT22;6852;51.686;5.314;2022-10-19T15:44:33;15.90;99.90
13561;DHT22;6852;51.686;5.314;2022-10-19T15:52:30;15.60;99.90
13561;DHT22;6852;51.686;5.314;2022-10-19T15:54:58;15.60;99.90
13561;DHT22;6852;51.686;5.314;2022-10-19T15:57:34;15.40;99.90
13561;DHT22;6852;51.686;5.314;2022-10-19T16:00:11;15.40;99.90
13561;DHT22;6852;51.686;5.314;2022-10-19T16:02:38;15.20;99.90
13561;DHT22;6852;51.686;5.314;2022-10-19T16:05:05;15.10;99.90
13561;DHT22;6852;51.686;5.314;2022-10-19T16:07:39;15.20;99.90
13561;DHT22;6852;51.686;5.314;2022-10-19T16:10:07;15.20;99.90
13561;DHT22;6852;51.686;5.314;2022-10-19T16:12:38;15.10;99.90
13561;DHT22;6852;51.686;5.314;2022-10-19T16:15:05;15.00;99.90
13561;DHT22;6852;51.686;5.314;2022-10-19T16:17:32;15.00;99.90
13561;DHT22;6852;51.686;5.314;2022-10-19T16:19:59;14.90;99.90
13561;DHT22;6852;51.686;5.314;2022-10-19T16:22:26;14.80;99.90
13561;DHT22;6852;51.686;5.314;2022-10-19T16:24:52;14.70;99.90
13561;DHT22;6852;51.686;5.314;2022-10-19T16:27:19;14.70;99.90
13561;DHT22;6852;51.686;5.314;2022-10-19T16:29:46;14.80;99.90
13561;DHT22;6852;51.686;5.314;2022-10-19T16:32:13;14.70;99.90
13561;DHT22;6852;51.686;5.314;2022-10-19T16:34:39;14.60;99.90
13561;DHT22;6852;51.686;5.314;2022-10-19T16:37:06;14.50;99.90
13561;DHT22;6852;51.686;5.314;2022-10-19T16:39:33;14.60;99.90
13561;DHT22;6852;51.686;5.314;2022-10-19T16:42:00;14.50;99.90
13561;DHT22;6852;51.686;5.314;2022-10-19T16:44:27;14.50;99.90
13561;DHT22;6852;51.686;5.314;2022-10-19T16:46:57;14.50;99.90
13561;DHT22;6852;51.686;5.314;2022-10-19T16:49:25;14.40;99.90
13561;DHT22;6852;51.686;5.314;2022-10-19T16:51:52;14.30;99.90
13561;DHT22;6852;51.686;5.314;2022-10-19T16:54:23;14.30;99.90
13561;DHT22;6852;51.686;5.314;2022-10-19T16:56:51;14.20;99.90
13561;DHT22;6852;51.686;5.314;2022-10-19T16:59:18;14.30;99.90
13561;DHT22;6852;51.686;5.314;2022-10-19T17:01:45;14.20;99.90
13561;DHT22;6852;51.686;5.314;2022-10-19T17:04:14;14.20;99.90
13561;DHT22;6852;51.686;5.314;2022-10-19T17:06:43;14.20;99.90
13561;DHT22;6852;51.686;5.314;2022-10-19T17:09:10;14.10;99.90
13561;DHT22;6852;51.686;5.314;2022-10-19T17:11:56;14.00;99.90
13561;DHT22;6852;51.686;5.314;2022-10-19T17:14:23;14.00;99.90
13561;DHT22;6852;51.686;5.314;2022-10-19T17:16:50;13.90;99.90
13561;DHT22;6852;51.686;5.314;2022-10-19T17:19:17;13.90;99.90
13561;DHT22;6852;51.686;5.314;2022-10-19T17:21:43;13.80;99.90
13561;DHT22;6852;51.686;5.314;2022-10-19T17:24:13;13.70;99.90
13561;DHT22;6852;51.686;5.314;2022-10-19T17:26:48;13.70;99.90
13561;DHT22;6852;51.686;5.314;2022-10-19T17:29:15;13.80;99.90
13561;DHT22;6852;51.686;5.314;2022-10-19T17:31:42;13.70;99.90
13561;DHT22;6852;51.686;5.314;2022-10-19T17:34:09;13.60;99.90
13561;DHT22;6852;51.686;5.314;2022-10-19T17:36:39;13.50;99.90
13561;DHT22;6852;51.686;5.314;2022-10-19T17:39:16;13.50;99.90
13561;DHT22;6852;51.686;5.314;2022-10-19T17:41:47;13.50;99.90
13561;DHT22;6852;51.686;5.314;2022-10-19T17:44:16;13.50;99.90
13561;DHT22;6852;51.686;5.314;2022-10-19T17:46:43;13.50;99.90
13561;DHT22;6852;51.686;5.314;2022-10-19T17:49:11;13.50;99.90
13561;DHT22;6852;51.686;5.314;2022-10-19T17:51:38;13.50;99.90
13561;DHT22;6852;51.686;5.314;2022-10-19T17:54:08;13.60;99.90
13561;DHT22;6852;51.686;5.314;2022-10-19T17:56:35;13.50;99.90
13561;DHT22;6852;51.686;5.314;2022-10-19T17:59:03;13.50;99.90
13561;DHT22;6852;51.686;5.314;2022-10-19T18:01:30;13.40;99.90
13561;DHT22;6852;51.686;5.314;2022-10-19T18:03:57;13.40;99.90
13561;DHT22;6852;51.686;5.314;2022-10-19T18:06:29;13.30;99.90
13561;DHT22;6852;51.686;5.314;2022-10-19T18:09:01;13.30;99.90
13561;DHT22;6852;51.686;5.314;2022-10-19T18:11:31;13.30;99.90
13561;DHT22;6852;51.686;5.314;2022-10-19T18:14:00;13.30;99.90
13561;DHT22;6852;51.686;5.314;2022-10-19T18:16:30;13.30;99.90
13561;DHT22;6852;51.686;5.314;2022-10-19T18:18:58;13.30;99.90
13561;DHT22;6852;51.686;5.314;2022-10-19T18:21:28;13.20;99.90
13561;DHT22;6852;51.686;5.314;2022-10-19T18:23:58;13.20;99.90
13561;DHT22;6852;51.686;5.314;2022-10-19T18:26:27;13.10;99.90
13561;DHT22;6852;51.686;5.314;2022-10-19T18:28:55;13.00;99.90
13561;DHT22;6852;51.686;5.314;2022-10-19T18:31:24;13.00;99.90
13561;DHT22;6852;51.686;5.314;2022-10-19T18:33:57;13.10;99.90
13561;DHT22;6852;51.686;5.314;2022-10-19T18:36:24;12.90;99.90